Time;durP1;ratioP1;P1;durP2;ratioP2;P2;SDS_P1;SDS_P2;PMS_P1;PMS_P2;Temp;Humidity;BMP_temperature;BMP_pressure;BME280_temperature;BME280_humidity;BME280_pressure;Samples;Min_cycle;Max_cycle;Signal;HPM_P1;HPM_P2
2023/09/24 00:01:35;;;;;;;21.58;6.93;;;;;;;;;;6338229;22;20019;-63
2023/09/24 00:04:02;;;;;;;34.40;8.13;;;;;;;;;;6337898;22;20022;-63
2023/09/24 00:06:29;;;;;;;15.93;6.38;;;;;;;;;;6338236;22;20302;-63
2023/09/24 00:08:55;;;;;;;16.92;6.40;;;;;;;;;;6337527;22;20023;-63
2023/09/24 00:11:23;;;;;;;25.35;6.47;;;;;;;;;;6337806;22;20015;-63
2023/09/24 00:13:49;;;;;;;33.67;7.32;;;;;;;;;;6338279;22;20335;-63
2023/09/24 00:16:16;;;;;;;32.40;7.55;;;;;;;;;;6341597;22;20379;-63
2023/09/24 00:18:43;;;;;;;21.90;6.20;;;;;;;;;;6341650;22;20444;-65
2023/09/24 00:21:10;;;;;;;28.92;6.88;;;;;;;;;;6341747;22;20015;-63
2023/09/24 00:23:38;;;;;;;22.17;5.82;;;;;;;;;;6341760;22;20011;-70
2023/09/24 00:26:05;;;;;;;28.48;7.05;;;;;;;;;;6341338;22;20015;-63
2023/09/24 00:28:32;;;;;;;29.05;6.18;;;;;;;;;;6341205;22;20019;-64
2023/09/24 00:30:58;;;;;;;57.30;7.32;;;;;;;;;;6344645;22;20025;-66
2023/09/24 00:33:25;;;;;;;23.83;5.20;;;;;;;;;;6345507;22;20367;-63
2023/09/24 00:35:53;;;;;;;18.92;4.60;;;;;;;;;;6345068;22;20027;-63
2023/09/24 00:38:20;;;;;;;24.60;5.85;;;;;;;;;;6343123;22;20106;-63
2023/09/24 00:40:47;;;;;;;17.27;3.97;;;;;;;;;;6316142;22;20430;-68
2023/09/24 00:43:32;;;;;;;31.10;5.57;;;;;;;;;;6318103;22;20022;-63
2023/09/24 00:46:00;;;;;;;39.58;6.30;;;;;;;;;;6345097;22;20453;-64
2023/09/24 00:48:28;;;;;;;15.50;4.43;;;;;;;;;;6342277;22;20039;-63
2023/09/24 00:50:57;;;;;;;23.35;5.63;;;;;;;;;;6344065;22;20025;-64
2023/09/24 00:53:25;;;;;;;19.08;4.65;;;;;;;;;;6317328;22;20078;-63
2023/09/24 00:55:52;;;;;;;22.75;4.78;;;;;;;;;;6343786;22;20518;-64
2023/09/24 00:58:19;;;;;;;25.48;4.78;;;;;;;;;;6315277;22;20026;-62
2023/09/24 01:00:46;;;;;;;22.35;5.13;;;;;;;;;;6346107;22;20449;-62
2023/09/24 01:03:13;;;;;;;31.60;5.07;;;;;;;;;;6346898;22;20015;-64
2023/09/24 01:05:41;;;;;;;24.77;4.45;;;;;;;;;;6346409;22;20089;-65
2023/09/24 01:08:07;;;;;;;21.83;4.35;;;;;;;;;;6343613;22;20017;-64
2023/09/24 01:10:34;;;;;;;21.63;3.90;;;;;;;;;;6291744;22;20023;-62
2023/09/24 01:13:04;;;;;;;35.58;5.47;;;;;;;;;;6345168;22;20018;-63
2023/09/24 01:15:32;;;;;;;26.85;4.80;;;;;;;;;;6318630;22;20023;-61
2023/09/24 01:18:03;;;;;;;11.82;3.95;;;;;;;;;;6342680;22;20444;-61
2023/09/24 01:20:31;;;;;;;16.95;3.92;;;;;;;;;;6343447;22;20505;-62
2023/09/24 01:23:00;;;;;;;21.52;4.45;;;;;;;;;;6343835;22;20010;-61
2023/09/24 01:25:27;;;;;;;22.10;4.13;;;;;;;;;;6344734;22;20015;-65
2023/09/24 01:27:54;;;;;;;58.15;6.32;;;;;;;;;;6314704;22;20018;-67
2023/09/24 01:30:21;;;;;;;10.02;2.92;;;;;;;;;;6343623;22;20061;-61
2023/09/24 01:32:50;;;;;;;16.88;3.92;;;;;;;;;;6343187;22;20037;-61
2023/09/24 01:35:19;;;;;;;28.83;4.35;;;;;;;;;;6317161;22;20096;-62
2023/09/24 01:37:46;;;;;;;29.10;4.43;;;;;;;;;;6341167;22;20015;-63
2023/09/24 01:40:18;;;;;;;15.02;3.83;;;;;;;;;;6342729;22;20019;-64
2023/09/24 01:42:46;;;;;;;24.67;4.43;;;;;;;;;;6342197;22;20097;-65
2023/09/24 01:45:13;;;;;;;27.08;4.28;;;;;;;;;;6342625;22;20011;-62
2023/09/24 01:47:40;;;;;;;24.10;4.40;;;;;;;;;;6286526;22;20015;-63
2023/09/24 01:50:08;;;;;;;14.68;3.67;;;;;;;;;;6314221;22;20023;-61
2023/09/24 01:52:36;;;;;;;25.95;4.45;;;;;;;;;;6288897;22;20019;-63
2023/09/24 01:55:03;;;;;;;60.33;6.45;;;;;;;;;;6313579;22;20094;-61
2023/09/24 01:57:30;;;;;;;12.73;3.63;;;;;;;;;;6312226;22;20094;-61
2023/09/24 01:59:56;;;;;;;33.10;4.40;;;;;;;;;;6339349;22;20026;-62
2023/09/24 02:02:25;;;;;;;24.10;3.80;;;;;;;;;;6310255;22;20015;-59
2023/09/24 02:04:54;;;;;;;32.08;4.20;;;;;;;;;;6310471;22;20049;-59
2023/09/24 02:07:21;;;;;;;29.25;4.13;;;;;;;;;;6310790;22;20060;-59
2023/09/24 02:09:48;;;;;;;20.58;3.80;;;;;;;;;;6338213;22;20094;-59
2023/09/24 02:12:15;;;;;;;14.45;3.72;;;;;;;;;;6338489;22;20057;-60
2023/09/24 02:14:41;;;;;;;16.27;3.60;;;;;;;;;;6284691;22;20102;-61
2023/09/24 02:17:09;;;;;;;19.10;3.67;;;;;;;;;;6310779;22;20015;-59
2023/09/24 02:19:35;;;;;;;17.10;3.63;;;;;;;;;;6338145;22;20090;-59
2023/09/24 02:22:03;;;;;;;57.60;6.47;;;;;;;;;;6338347;22;20022;-58
2023/09/24 02:24:29;;;;;;;16.75;3.55;;;;;;;;;;6338885;22;20015;-60
2023/09/24 02:26:56;;;;;;;31.27;4.43;;;;;;;;;;6310465;22;20333;-59
2023/09/24 02:29:23;;;;;;;19.02;3.25;;;;;;;;;;6310794;22;20014;-58
2023/09/24 02:31:52;;;;;;;9.68;3.00;;;;;;;;;;6310696;22;20393;-59
2023/09/24 02:34:19;;;;;;;17.63;3.45;;;;;;;;;;6338054;22;20011;-59
2023/09/24 02:36:45;;;;;;;17.33;3.40;;;;;;;;;;6338106;22;20038;-62
2023/09/24 02:39:12;;;;;;;21.85;3.60;;;;;;;;;;6311496;22;20130;-60
2023/09/24 02:41:39;;;;;;;13.95;3.15;;;;;;;;;;6311140;22;20384;-59
2023/09/24 02:44:06;;;;;;;24.20;3.53;;;;;;;;;;6310934;22;20447;-58
2023/09/24 02:46:34;;;;;;;15.18;2.95;;;;;;;;;;6339010;22;20018;-60
2023/09/24 02:49:00;;;;;;;54.30;5.57;;;;;;;;;;6311251;22;20420;-60
2023/09/24 02:51:28;;;;;;;15.93;3.50;;;;;;;;;;6311603;22;20014;-62
2023/09/24 02:53:55;;;;;;;14.45;3.33;;;;;;;;;;6338871;22;20010;-59
2023/09/24 02:56:22;;;;;;;29.17;4.13;;;;;;;;;;6338890;22;20018;-59
2023/09/24 02:58:49;;;;;;;11.00;2.85;;;;;;;;;;6339440;22;20077;-58
2023/09/24 03:01:16;;;;;;;28.45;4.22;;;;;;;;;;6311109;22;20324;-60
2023/09/24 03:03:44;;;;;;;19.73;3.42;;;;;;;;;;6311212;22;20019;-59
2023/09/24 03:06:12;;;;;;;23.83;4.47;;;;;;;;;;6338508;22;20007;-60
2023/09/24 03:08:39;;;;;;;10.52;3.35;;;;;;;;;;6311078;22;20011;-58
2023/09/24 03:11:11;;;;;;;18.50;3.72;;;;;;;;;;6339040;22;20029;-59
2023/09/24 03:13:38;;;;;;;19.80;3.47;;;;;;;;;;6285366;22;20022;-58
2023/09/24 03:16:05;;;;;;;66.85;6.57;;;;;;;;;;6311072;22;20123;-59
2023/09/24 03:18:32;;;;;;;26.73;4.25;;;;;;;;;;6311683;22;20343;-59
2023/09/24 03:20:59;;;;;;;23.20;3.60;;;;;;;;;;6311155;22;20359;-57
2023/09/24 03:23:26;;;;;;;12.15;2.83;;;;;;;;;;6310992;22;20072;-59
2023/09/24 03:25:53;;;;;;;15.40;3.22;;;;;;;;;;6338605;22;20017;-59
2023/09/24 03:28:20;;;;;;;23.25;3.95;;;;;;;;;;6285114;22;20035;-58
2023/09/24 03:30:47;;;;;;;19.20;3.75;;;;;;;;;;6338745;22;20042;-59
2023/09/24 03:33:14;;;;;;;25.60;3.97;;;;;;;;;;6338671;22;20046;-58
2023/09/24 03:35:41;;;;;;;14.60;3.45;;;;;;;;;;6310387;22;20038;-58
2023/09/24 03:38:08;;;;;;;26.13;3.80;;;;;;;;;;6310492;22;20497;-58
2023/09/24 03:40:35;;;;;;;17.33;3.08;;;;;;;;;;6338654;22;20037;-61
2023/09/24 03:43:01;;;;;;;69.20;6.70;;;;;;;;;;6310312;22;20011;-62
2023/09/24 03:45:29;;;;;;;15.80;3.40;;;;;;;;;;6285459;22;20428;-60
2023/09/24 03:47:56;;;;;;;24.33;4.05;;;;;;;;;;6310236;22;20021;-59
2023/09/24 03:50:23;;;;;;;18.30;3.60;;;;;;;;;;6310408;22;20013;-60
2023/09/24 03:52:50;;;;;;;17.35;3.20;;;;;;;;;;6338070;22;20037;-61
2023/09/24 03:55:19;;;;;;;18.73;3.90;;;;;;;;;;6338351;22;20015;-60
2023/09/24 03:57:47;;;;;;;14.77;3.22;;;;;;;;;;6338082;22;20044;-61
2023/09/24 04:00:21;;;;;;;20.67;3.60;;;;;;;;;;6310832;22;20014;-62
2023/09/24 04:02:49;;;;;;;17.55;3.60;;;;;;;;;;6310935;22;20045;-60
2023/09/24 04:05:19;;;;;;;22.75;4.05;;;;;;;;;;6310192;22;20069;-60
2023/09/24 04:07:49;;;;;;;19.77;3.65;;;;;;;;;;6310471;22;20015;-61
2023/09/24 04:10:17;;;;;;;28.02;4.63;;;;;;;;;;6310611;22;20019;-61
2023/09/24 04:12:46;;;;;;;20.05;3.40;;;;;;;;;;6311404;22;20064;-60
2023/09/24 04:15:14;;;;;;;20.33;3.50;;;;;;;;;;6338035;22;20014;-60
2023/09/24 04:17:41;;;;;;;15.98;4.05;;;;;;;;;;6310257;22;20309;-61
2023/09/24 04:20:11;;;;;;;19.70;3.75;;;;;;;;;;6337986;22;20025;-60
2023/09/24 04:22:38;;;;;;;18.95;3.88;;;;;;;;;;6337799;22;20018;-61
2023/09/24 04:25:05;;;;;;;47.08;5.20;;;;;;;;;;6310175;22;20006;-61
2023/09/24 04:27:32;;;;;;;16.48;3.58;;;;;;;;;;6337646;22;20086;-61
2023/09/24 04:29:58;;;;;;;30.17;4.30;;;;;;;;;;6309770;22;20173;-62
2023/09/24 04:32:25;;;;;;;26.98;4.07;;;;;;;;;;6309348;22;20019;-62
2023/09/24 04:34:55;;;;;;;10.93;3.05;;;;;;;;;;6337152;22;20015;-61
2023/09/24 04:37:22;;;;;;;24.70;4.15;;;;;;;;;;6310086;22;20018;-61
2023/09/24 04:39:48;;;;;;;21.25;3.42;;;;;;;;;;6310352;22;20015;-61
2023/09/24 04:42:15;;;;;;;15.98;3.67;;;;;;;;;;6338008;22;20007;-61
2023/09/24 04:44:42;;;;;;;19.05;3.85;;;;;;;;;;6337108;22;20031;-61
2023/09/24 04:47:09;;;;;;;29.63;4.60;;;;;;;;;;6309604;22;20015;-61
2023/09/24 04:49:36;;;;;;;24.77;3.92;;;;;;;;;;6337538;22;20010;-61
2023/09/24 04:52:03;;;;;;;58.40;6.20;;;;;;;;;;6310389;22;20003;-62
2023/09/24 04:54:29;;;;;;;13.43;2.95;;;;;;;;;;6310317;22;20030;-60
2023/09/24 04:56:56;;;;;;;12.90;3.20;;;;;;;;;;6337133;22;20019;-60
2023/09/24 04:59:23;;;;;;;29.40;4.18;;;;;;;;;;6336951;22;20011;-60
2023/09/24 05:01:50;;;;;;;22.58;3.88;;;;;;;;;;6337466;22;20010;-61
2023/09/24 05:04:17;;;;;;;23.00;4.10;;;;;;;;;;6337420;22;20090;-61
2023/09/24 05:06:44;;;;;;;20.80;4.35;;;;;;;;;;6337313;22;20087;-60
2023/09/24 05:09:11;;;;;;;19.48;3.92;;;;;;;;;;6309595;22;20007;-61
2023/09/24 05:11:37;;;;;;;15.43;3.78;;;;;;;;;;6337231;22;20011;-61
2023/09/24 05:14:04;;;;;;;25.80;4.32;;;;;;;;;;6337381;22;20014;-61
2023/09/24 05:16:31;;;;;;;16.45;3.50;;;;;;;;;;6337086;22;20034;-61
2023/09/24 05:19:02;;;;;;;52.50;5.65;;;;;;;;;;6337559;22;20316;-60
2023/09/24 05:21:29;;;;;;;20.52;3.95;;;;;;;;;;6337708;22;20082;-60
2023/09/24 05:23:55;;;;;;;19.50;3.63;;;;;;;;;;6309961;22;20015;-60
2023/09/24 05:26:22;;;;;;;22.88;4.32;;;;;;;;;;6337004;22;20015;-60
2023/09/24 05:28:48;;;;;;;28.92;4.43;;;;;;;;;;6336450;22;20043;-61
2023/09/24 05:31:18;;;;;;;25.70;4.13;;;;;;;;;;6337464;22;20026;-60
2023/09/24 05:33:46;;;;;;;32.00;4.95;;;;;;;;;;6337074;22;20021;-61
2023/09/24 05:36:14;;;;;;;9.27;3.65;;;;;;;;;;6337503;22;20033;-61
2023/09/24 05:38:40;;;;;;;18.60;4.13;;;;;;;;;;6337158;22;20011;-61
2023/09/24 05:41:07;;;;;;;24.50;4.50;;;;;;;;;;6337093;22;20011;-62
2023/09/24 05:43:35;;;;;;;13.85;4.13;;;;;;;;;;6337296;22;20570;-61
2023/09/24 05:46:02;;;;;;;39.45;5.70;;;;;;;;;;6339035;22;20018;-60
2023/09/24 05:48:29;;;;;;;10.32;4.32;;;;;;;;;;6338930;22;20328;-61
2023/09/24 05:50:56;;;;;;;19.90;4.70;;;;;;;;;;6338842;22;20037;-62
2023/09/24 05:53:25;;;;;;;27.00;5.03;;;;;;;;;;6339077;22;20007;-60
2023/09/24 05:55:53;;;;;;;25.10;5.63;;;;;;;;;;6311178;22;20025;-61
2023/09/24 05:58:22;;;;;;;29.02;5.22;;;;;;;;;;6338866;22;20011;-61
2023/09/24 06:00:51;;;;;;;28.33;5.38;;;;;;;;;;6311357;22;20014;-61
2023/09/24 06:03:18;;;;;;;16.20;4.72;;;;;;;;;;6339130;22;20011;-62
2023/09/24 06:05:45;;;;;;;22.35;4.75;;;;;;;;;;6338442;22;20091;-60
2023/09/24 06:08:12;;;;;;;11.27;3.78;;;;;;;;;;6338654;22;20007;-61
2023/09/24 06:10:45;;;;;;;28.38;4.97;;;;;;;;;;6311115;22;20007;-60
2023/09/24 06:13:13;;;;;;;49.88;5.80;;;;;;;;;;6338418;22;20060;-60
2023/09/24 06:15:41;;;;;;;16.85;4.07;;;;;;;;;;6339116;22;20451;-60
2023/09/24 06:18:08;;;;;;;30.20;5.18;;;;;;;;;;6338287;22;20052;-60
2023/09/24 06:20:39;;;;;;;36.35;5.55;;;;;;;;;;6310420;22;20370;-60
2023/09/24 06:23:07;;;;;;;30.75;4.95;;;;;;;;;;6337793;22;20017;-61
2023/09/24 06:25:33;;;;;;;26.92;4.68;;;;;;;;;;6338400;22;20021;-61
2023/09/24 06:28:00;;;;;;;68.13;7.57;;;;;;;;;;6337513;22;20389;-61
2023/09/24 06:30:27;;;;;;;15.73;4.10;;;;;;;;;;6338271;22;20374;-60
2023/09/24 06:32:54;;;;;;;36.47;5.35;;;;;;;;;;6337811;22;20014;-61
2023/09/24 06:35:21;;;;;;;26.83;4.65;;;;;;;;;;6310608;22;20314;-61
2023/09/24 06:37:47;;;;;;;25.63;4.15;;;;;;;;;;6284918;22;20427;-60
2023/09/24 06:40:14;;;;;;;33.78;4.63;;;;;;;;;;6338565;22;20007;-60
2023/09/24 06:42:42;;;;;;;18.85;4.10;;;;;;;;;;6338882;22;20454;-61
2023/09/24 06:45:09;;;;;;;19.15;4.20;;;;;;;;;;6338308;22;20082;-60
2023/09/24 06:47:36;;;;;;;26.48;4.30;;;;;;;;;;6337889;22;20369;-60
2023/09/24 06:50:03;;;;;;;22.50;4.13;;;;;;;;;;6310685;22;20451;-62
2023/09/24 06:52:33;;;;;;;19.85;4.22;;;;;;;;;;6338501;22;20038;-61
2023/09/24 06:54:59;;;;;;;54.65;6.15;;;;;;;;;;6337633;22;20466;-62
2023/09/24 06:57:26;;;;;;;27.17;4.90;;;;;;;;;;6310676;22;20069;-61
2023/09/24 06:59:53;;;;;;;19.65;4.03;;;;;;;;;;6310483;22;20686;-60
2023/09/24 07:02:20;;;;;;;36.95;4.57;;;;;;;;;;6279285;22;20023;-61
2023/09/24 07:04:48;;;;;;;14.00;3.40;;;;;;;;;;6306545;22;20014;-61
2023/09/24 07:07:15;;;;;;;38.05;5.05;;;;;;;;;;6306143;22;20061;-62
2023/09/24 07:09:41;;;;;;;17.65;4.03;;;;;;;;;;6306859;22;20451;-62
2023/09/24 07:12:08;;;;;;;34.67;4.80;;;;;;;;;;6279205;22;20015;-61
2023/09/24 07:14:35;;;;;;;26.30;4.10;;;;;;;;;;6306281;22;20011;-63
2023/09/24 07:17:02;;;;;;;27.73;4.35;;;;;;;;;;6306118;22;20439;-61
2023/09/24 07:19:28;;;;;;;31.63;4.68;;;;;;;;;;6306534;22;20007;-60
2023/09/24 07:21:55;;;;;;;47.20;5.53;;;;;;;;;;6279468;22;20670;-63
2023/09/24 07:24:24;;;;;;;21.20;3.63;;;;;;;;;;6279939;22;20007;-60
2023/09/24 07:26:51;;;;;;;12.65;3.53;;;;;;;;;;6279418;22;20441;-60
2023/09/24 07:29:18;;;;;;;21.60;3.97;;;;;;;;;;6306292;22;20007;-61
2023/09/24 07:31:44;;;;;;;30.23;4.53;;;;;;;;;;6306176;22;20463;-60
2023/09/24 07:34:11;;;;;;;25.45;3.72;;;;;;;;;;6305981;22;20429;-61
2023/09/24 07:36:38;;;;;;;20.73;3.63;;;;;;;;;;6306499;22;20062;-60
2023/09/24 07:39:23;;;;;;;22.35;3.78;;;;;;;;;;6306523;22;20023;-60
2023/09/24 07:41:50;;;;;;;20.45;3.92;;;;;;;;;;6306121;22;20022;-60
2023/09/24 07:44:18;;;;;;;19.00;3.55;;;;;;;;;;6278914;22;20011;-65
2023/09/24 07:46:47;;;;;;;21.05;3.58;;;;;;;;;;6306331;22;20437;-63
2023/09/24 07:49:15;;;;;;;31.17;3.92;;;;;;;;;;6306321;22;20018;-60
2023/09/24 07:51:42;;;;;;;11.27;2.80;;;;;;;;;;6253942;22;20329;-61
2023/09/24 07:54:09;;;;;;;25.33;3.75;;;;;;;;;;6305905;22;20012;-60
2023/09/24 07:56:41;;;;;;;19.80;3.22;;;;;;;;;;6278753;22;20008;-60
2023/09/24 07:59:08;;;;;;;21.35;3.35;;;;;;;;;;6306109;22;20020;-59
2023/09/24 08:01:35;;;;;;;24.27;3.40;;;;;;;;;;6305993;22;20086;-59
2023/09/24 08:04:02;;;;;;;43.22;4.82;;;;;;;;;;6306482;22;20018;-59
2023/09/24 08:06:29;;;;;;;16.95;3.08;;;;;;;;;;6305908;22;20078;-59
2023/09/24 08:08:56;;;;;;;20.50;3.30;;;;;;;;;;6253252;22;20008;-59
2023/09/24 08:11:42;;;;;;;13.90;2.70;;;;;;;;;;6306379;22;20056;-60
2023/09/24 08:14:09;;;;;;;23.42;3.88;;;;;;;;;;6278418;22;20078;-59
2023/09/24 08:16:35;;;;;;;17.50;3.00;;;;;;;;;;6304702;22;20011;-60
2023/09/24 08:19:02;;;;;;;58.75;5.60;;;;;;;;;;6304865;22;20011;-57
2023/09/24 08:21:29;;;;;;;16.15;2.85;;;;;;;;;;6306779;22;20015;-57
2023/09/24 08:23:57;;;;;;;24.35;3.05;;;;;;;;;;6305917;22;20022;-57
2023/09/24 08:26:24;;;;;;;10.10;2.78;;;;;;;;;;6306277;22;20015;-57
2023/09/24 08:28:50;;;;;;;30.25;3.78;;;;;;;;;;6305435;22;20049;-57
2023/09/24 08:31:17;;;;;;;20.25;3.03;;;;;;;;;;6305461;22;20505;-57
2023/09/24 08:33:44;;;;;;;26.40;3.30;;;;;;;;;;6306390;22;20011;-58
2023/09/24 08:36:11;;;;;;;26.48;3.65;;;;;;;;;;6304397;22;20045;-58
2023/09/24 08:38:38;;;;;;;23.55;3.50;;;;;;;;;;6306078;22;20015;-57
2023/09/24 08:41:11;;;;;;;19.95;3.05;;;;;;;;;;6305485;22;20011;-57
2023/09/24 08:43:38;;;;;;;;;;;;;;;;;;6304663;22;20011;-57
2023/09/24 08:46:06;;;;;;;55.85;4.60;;;;;;;;;;6304806;22;19911;-57
2023/09/24 08:48:33;;;;;;;17.85;2.45;;;;;;;;;;6306180;22;20038;-60
2023/09/24 08:51:01;;;;;;;14.68;2.17;;;;;;;;;;6304238;22;20026;-59
2023/09/24 08:53:29;;;;;;;15.63;2.15;;;;;;;;;;6305999;22;20492;-60
2023/09/24 08:55:56;;;;;;;14.38;2.33;;;;;;;;;;6305642;22;20016;-57
2023/09/24 08:58:23;;;;;;;24.00;2.75;;;;;;;;;;6305471;22;20008;-58
2023/09/24 09:00:51;;;;;;;20.15;2.25;;;;;;;;;;6306687;22;20015;-57
2023/09/24 09:03:19;;;;;;;22.58;3.00;;;;;;;;;;6334998;22;20028;-58
2023/09/24 09:05:46;;;;;;;15.45;2.08;;;;;;;;;;6336895;22;20011;-59
2023/09/24 09:08:13;;;;;;;26.45;2.70;;;;;;;;;;6336876;22;20037;-58
2023/09/24 09:10:39;;;;;;;20.63;2.53;;;;;;;;;;6309083;22;20090;-60
2023/09/24 09:13:08;;;;;;;47.50;4.28;;;;;;;;;;6309525;22;20395;-57
2023/09/24 09:15:38;;;;;;;22.20;2.53;;;;;;;;;;6337662;22;20014;-58
2023/09/24 09:18:05;;;;;;;32.53;3.55;;;;;;;;;;6336900;22;20015;-57
2023/09/24 09:20:39;;;;;;;23.85;2.47;;;;;;;;;;6338523;22;20007;-58
2023/09/24 09:23:11;;;;;;;22.60;2.65;;;;;;;;;;6338912;22;20412;-59
2023/09/24 09:25:52;;;;;;;24.30;2.53;;;;;;;;;;6338744;22;20475;-57
2023/09/24 09:28:19;;;;;;;23.15;2.38;;;;;;;;;;6338592;22;20011;-57
2023/09/24 09:30:57;;;;;;;20.27;2.00;;;;;;;;;;6339192;22;20007;-58
2023/09/24 09:33:25;;;;;;;14.85;1.77;;;;;;;;;;6338980;22;20424;-58
2023/09/24 09:35:52;;;;;;;22.17;2.60;;;;;;;;;;6338097;22;20006;-57
2023/09/24 09:38:20;;;;;;;11.75;1.63;;;;;;;;;;6338438;22;20420;-57
2023/09/24 09:40:51;;;;;;;22.70;2.25;;;;;;;;;;6338840;22;20412;-57
2023/09/24 09:43:21;;;;;;;37.83;3.08;;;;;;;;;;6338719;22;20470;-57
2023/09/24 09:45:48;;;;;;;20.30;2.20;;;;;;;;;;6339359;22;20010;-57
2023/09/24 09:48:17;;;;;;;16.80;2.00;;;;;;;;;;6338534;22;20023;-57
2023/09/24 09:50:45;;;;;;;15.35;1.80;;;;;;;;;;6338772;22;20011;-57
2023/09/24 09:53:15;;;;;;;28.80;2.80;;;;;;;;;;6338570;22;20014;-58
2023/09/24 09:55:43;;;;;;;22.00;2.22;;;;;;;;;;6311336;22;20376;-57
2023/09/24 09:58:11;;;;;;;50.83;4.03;;;;;;;;;;6338530;22;20082;-57
2023/09/24 10:00:49;;;;;;;18.55;1.98;;;;;;;;;;6339056;22;20010;-57
2023/09/24 10:03:17;;;;;;;18.63;1.95;;;;;;;;;;6338138;22;20035;-58
2023/09/24 10:05:45;;;;;;;15.82;1.80;;;;;;;;;;6310567;22;20002;-58
2023/09/24 10:08:33;;;;;;;27.35;2.47;;;;;;;;;;6338100;22;20011;-57
2023/09/24 10:11:01;;;;;;;31.98;2.80;;;;;;;;;;6338075;22;20085;-58
2023/09/24 10:13:47;;;;;;;15.05;1.60;;;;;;;;;;6337986;22;20401;-57
2023/09/24 10:16:32;;;;;;;25.30;2.40;;;;;;;;;;6338503;22;20014;-57
2023/09/24 10:19:00;;;;;;;58.17;4.28;;;;;;;;;;6338142;22;20011;-58
2023/09/24 10:21:31;;;;;;;16.38;1.70;;;;;;;;;;6338601;22;20436;-57
2023/09/24 10:24:03;;;;;;;19.67;2.03;;;;;;;;;;6338289;22;20450;-57
2023/09/24 10:26:50;;;;;;;26.95;2.30;;;;;;;;;;6338242;22;20555;-57
2023/09/24 10:29:19;;;;;;;25.15;2.30;;;;;;;;;;6338100;22;20481;-57
2023/09/24 10:32:04;;;;;;;18.52;1.83;;;;;;;;;;6338132;22;20018;-58
2023/09/24 10:34:49;;;;;;;38.08;2.88;;;;;;;;;;6338140;22;20490;-57
2023/09/24 10:37:18;;;;;;;32.58;2.95;;;;;;;;;;6310563;22;20018;-57
2023/09/24 10:40:03;;;;;;;14.50;1.92;;;;;;;;;;6311117;22;20010;-57
2023/09/24 10:42:31;;;;;;;28.88;2.58;;;;;;;;;;6338593;22;20015;-57
2023/09/24 10:45:07;;;;;;;13.77;1.60;;;;;;;;;;6338433;22;20060;-57
2023/09/24 10:47:38;;;;;;;10.90;1.40;;;;;;;;;;6337879;22;20068;-57
2023/09/24 10:50:09;;;;;;;22.67;2.08;;;;;;;;;;6338040;22;20019;-57
2023/09/24 10:52:48;;;;;;;24.70;2.95;;;;;;;;;;6337618;22;20011;-58
2023/09/24 10:55:16;;;;;;;28.60;2.63;;;;;;;;;;6337535;22;20011;-58
2023/09/24 10:57:46;;;;;;;20.23;2.22;;;;;;;;;;6310944;22;20007;-58
2023/09/24 11:00:16;;;;;;;15.20;1.73;;;;;;;;;;6337529;22;20056;-57
2023/09/24 11:02:44;;;;;;;19.83;2.25;;;;;;;;;;6338220;22;20034;-57
2023/09/24 11:05:10;;;;;;;26.25;2.67;;;;;;;;;;6309920;22;20022;-60
2023/09/24 11:07:37;;;;;;;17.25;1.92;;;;;;;;;;6337863;22;20014;-58
2023/09/24 11:10:04;;;;;;;53.72;3.95;;;;;;;;;;6338196;22;20011;-57
2023/09/24 11:12:31;;;;;;;29.75;2.60;;;;;;;;;;6337967;22;20064;-57
2023/09/24 11:14:58;;;;;;;7.82;1.42;;;;;;;;;;6337725;22;20034;-57
2023/09/24 11:17:43;;;;;;;22.05;2.22;;;;;;;;;;6338125;22;20009;-57
2023/09/24 11:20:11;;;;;;;17.95;2.03;;;;;;;;;;6337702;22;20011;-57
2023/09/24 11:22:39;;;;;;;28.92;2.75;;;;;;;;;;6337904;22;20018;-57
2023/09/24 11:25:05;;;;;;;43.33;3.33;;;;;;;;;;6337939;22;20018;-57
2023/09/24 11:27:33;;;;;;;27.02;2.22;;;;;;;;;;6338361;22;20015;-57
2023/09/24 11:30:00;;;;;;;15.57;1.48;;;;;;;;;;6337496;22;20033;-57
2023/09/24 11:32:27;;;;;;;20.30;1.83;;;;;;;;;;6337777;22;20466;-58
2023/09/24 11:35:10;;;;;;;19.60;2.22;;;;;;;;;;6337729;22;20060;-57
2023/09/24 11:37:49;;;;;;;27.23;2.13;;;;;;;;;;6337781;22;20011;-57
2023/09/24 11:40:29;;;;;;;26.58;2.20;;;;;;;;;;6337915;22;20034;-57
2023/09/24 11:42:55;;;;;;;15.50;1.48;;;;;;;;;;6309796;22;20011;-57
2023/09/24 11:45:55;;;;;;;34.45;2.85;;;;;;;;;;6337847;22;20059;-57
2023/09/24 11:48:23;;;;;;;20.67;2.17;;;;;;;;;;6181423;23;20327;-58
2023/09/24 11:50:51;;;;;;;23.20;2.42;;;;;;;;;;6181135;23;20013;-57
2023/09/24 11:53:19;;;;;;;11.02;1.45;;;;;;;;;;6181199;23;20104;-58
2023/09/24 11:55:50;;;;;;;21.85;2.13;;;;;;;;;;6181197;23;20044;-58
2023/09/24 11:58:26;;;;;;;40.90;3.97;;;;;;;;;;6181216;23;20475;-58
2023/09/24 12:00:54;;;;;;;21.55;1.98;;;;;;;;;;6181812;23;20017;-60
2023/09/24 12:03:21;;;;;;;14.35;1.92;;;;;;;;;;6181203;23;20013;-57
2023/09/24 12:05:48;;;;;;;16.73;1.52;;;;;;;;;;6181155;23;20471;-57
2023/09/24 12:08:15;;;;;;;17.75;1.58;;;;;;;;;;6181420;23;20021;-57
2023/09/24 12:10:42;;;;;;;47.08;3.45;;;;;;;;;;6180868;23;20024;-57
2023/09/24 12:13:09;;;;;;;56.33;4.20;;;;;;;;;;6178971;23;20028;-58
2023/09/24 12:15:36;;;;;;;22.45;2.42;;;;;;;;;;6181523;23;20017;-58
2023/09/24 12:18:06;;;;;;;22.48;3.60;;;;;;;;;;6180962;23;20013;-58
2023/09/24 12:20:34;;;;;;;23.08;2.25;;;;;;;;;;6180880;23;20025;-57
2023/09/24 12:23:01;;;;;;;22.67;2.40;;;;;;;;;;6191835;22;20048;-61
2023/09/24 12:25:31;;;;;;;35.05;2.80;;;;;;;;;;6336922;22;20089;-62
2023/09/24 12:27:58;;;;;;;29.58;2.58;;;;;;;;;;6309743;22;20014;-63
2023/09/24 12:30:25;;;;;;;15.32;1.75;;;;;;;;;;6310312;22;20011;-59
2023/09/24 12:32:52;;;;;;;18.90;2.17;;;;;;;;;;6337146;22;20023;-63
2023/09/24 12:35:19;;;;;;;14.27;2.05;;;;;;;;;;6337355;22;20681;-61
2023/09/24 12:37:46;;;;;;;26.00;2.60;;;;;;;;;;6336950;22;20044;-60
2023/09/24 12:40:13;;;;;;;53.65;4.13;;;;;;;;;;6336805;22;20007;-58
2023/09/24 12:42:40;;;;;;;21.33;2.13;;;;;;;;;;6337571;22;20431;-57
2023/09/24 12:45:10;;;;;;;18.08;1.80;;;;;;;;;;6337427;22;20432;-58
2023/09/24 12:47:38;;;;;;;25.05;2.45;;;;;;;;;;6336946;22;20046;-58
2023/09/24 12:50:06;;;;;;;23.20;2.10;;;;;;;;;;6337115;22;20098;-59
2023/09/24 12:52:34;;;;;;;25.83;2.63;;;;;;;;;;6336837;22;20011;-59
2023/09/24 12:55:03;;;;;;;58.53;4.35;;;;;;;;;;6339339;22;20021;-58
2023/09/24 12:57:30;;;;;;;15.45;1.52;;;;;;;;;;6312042;22;20011;-58
2023/09/24 12:59:57;;;;;;;8.88;1.42;;;;;;;;;;6311579;22;20019;-58
2023/09/24 13:02:24;;;;;;;16.00;1.67;;;;;;;;;;6339111;22;20011;-59
2023/09/24 13:04:51;;;;;;;16.67;2.20;;;;;;;;;;6339300;22;20443;-59
2023/09/24 13:07:18;;;;;;;28.17;2.70;;;;;;;;;;6338952;22;20089;-59
2023/09/24 13:09:45;;;;;;;4.72;0.90;;;;;;;;;;6339989;22;20036;-59
2023/09/24 13:12:12;;;;;;;18.40;1.80;;;;;;;;;;6338674;22;20034;-59
2023/09/24 13:14:39;;;;;;;34.58;2.58;;;;;;;;;;6338467;22;20006;-56
2023/09/24 13:17:06;;;;;;;22.73;1.77;;;;;;;;;;6339102;22;20060;-61
2023/09/24 13:19:33;;;;;;;15.48;1.58;;;;;;;;;;6338922;22;20011;-57
2023/09/24 13:22:00;;;;;;;33.50;2.78;;;;;;;;;;6339062;22;20432;-60
2023/09/24 13:24:26;;;;;;;19.13;1.67;;;;;;;;;;6338835;22;20034;-57
2023/09/24 13:26:53;;;;;;;14.80;1.60;;;;;;;;;;6338849;22;20014;-57
2023/09/24 13:29:20;;;;;;;23.50;2.03;;;;;;;;;;6338158;22;20375;-57
2023/09/24 13:31:49;;;;;;;8.65;1.30;;;;;;;;;;6338669;22;20053;-58
2023/09/24 13:34:16;;;;;;;34.55;2.53;;;;;;;;;;6338527;22;20014;-58
2023/09/24 13:36:42;;;;;;;17.80;1.65;;;;;;;;;;6338775;22;20060;-58
2023/09/24 13:39:10;;;;;;;14.65;1.23;;;;;;;;;;6338665;22;20013;-55
2023/09/24 13:41:37;;;;;;;27.30;2.20;;;;;;;;;;6338412;22;20022;-58
2023/09/24 13:44:04;;;;;;;24.20;2.08;;;;;;;;;;6311465;22;20014;-61
2023/09/24 13:46:31;;;;;;;16.45;1.67;;;;;;;;;;6339107;22;20019;-60
2023/09/24 13:48:59;;;;;;;17.02;1.50;;;;;;;;;;6311522;22;20493;-58
2023/09/24 13:51:26;;;;;;;23.67;1.88;;;;;;;;;;6339174;22;20014;-63
2023/09/24 13:53:52;;;;;;;52.22;3.70;;;;;;;;;;6338311;22;20375;-58
2023/09/24 13:56:19;;;;;;;17.33;1.42;;;;;;;;;;6339283;22;20035;-58
2023/09/24 13:58:46;;;;;;;15.65;1.70;;;;;;;;;;6338876;22;20319;-58
2023/09/24 14:01:12;;;;;;;65.13;4.78;;;;;;;;;;6338120;22;20037;-62
2023/09/24 14:03:39;;;;;;;15.95;1.58;;;;;;;;;;6338863;22;20503;-60
2023/09/24 14:06:06;;;;;;;11.88;1.52;;;;;;;;;;6338216;22;20433;-58
2023/09/24 14:14:12;;;;;;;23.88;2.45;;;;;;;;;;6337630;22;20018;-58
2023/09/24 14:16:40;;;;;;;34.95;2.83;;;;;;;;;;6338195;22;20010;-58
2023/09/24 14:19:08;;;;;;;64.93;4.70;;;;;;;;;;6338192;22;20086;-57
2023/09/24 14:21:35;;;;;;;27.88;2.53;;;;;;;;;;6338746;22;20064;-62
2023/09/24 14:24:01;;;;;;;36.97;2.92;;;;;;;;;;6337922;22;20424;-64
2023/09/24 14:26:28;;;;;;;26.13;2.10;;;;;;;;;;6336680;22;20022;-67
2023/09/24 14:28:57;;;;;;;28.48;2.33;;;;;;;;;;6310528;22;20007;-66
2023/09/24 14:31:24;;;;;;;31.60;2.88;;;;;;;;;;6337786;22;20429;-68
2023/09/24 14:33:51;;;;;;;12.32;1.33;;;;;;;;;;6311418;22;20019;-68
2023/09/24 14:36:20;;;;;;;38.92;3.20;;;;;;;;;;6338142;22;20022;-65
2023/09/24 14:38:47;;;;;;;7.93;1.20;;;;;;;;;;6311772;22;20014;-68
2023/09/24 14:41:14;;;;;;;28.48;2.38;;;;;;;;;;6311174;22;20034;-68
2023/09/24 14:43:41;;;;;;;18.55;1.88;;;;;;;;;;6337934;22;20030;-66